Time;durP1;ratioP1;P1;durP2;ratioP2;P2;SDS_P1;SDS_P2;PMS_P1;PMS_P2;Temp;Humidity;BMP_temperature;BMP_pressure;BME280_temperature;BME280_humidity;BME280_pressure;Samples;Min_cycle;Max_cycle;Signal;HPM_P1;HPM_P2
2022/03/13 00:00:53;;;;;;;22.45;13.00;;;;;;;;;;4947981;28;20094;-81
2022/03/13 00:03:20;;;;;;;22.13;12.63;;;;;;;;;;4982148;28;20102;-81
2022/03/13 00:05:50;;;;;;;24.48;12.45;;;;;;;;;;4946704;28;20036;-82
2022/03/13 00:08:27;;;;;;;24.98;14.32;;;;;;;;;;4938211;28;20397;-81
2022/03/13 00:11:01;;;;;;;24.83;13.98;;;;;;;;;;4926760;28;20505;-81
2022/03/13 00:13:30;;;;;;;25.05;14.18;;;;;;;;;;4946331;28;20039;-80
2022/03/13 00:15:56;;;;;;;22.35;12.30;;;;;;;;;;4980711;28;20450;-81
2022/03/13 00:18:22;;;;;;;24.42;13.82;;;;;;;;;;4951415;28;20047;-80
2022/03/13 00:20:48;;;;;;;20.27;12.05;;;;;;;;;;4942353;28;20590;-81
2022/03/13 00:23:15;;;;;;;20.58;11.20;;;;;;;;;;4947400;28;20039;-80
2022/03/13 00:25:41;;;;;;;21.10;12.52;;;;;;;;;;4931204;28;20043;-81
2022/03/13 00:28:07;;;;;;;18.23;11.20;;;;;;;;;;4944747;28;20057;-81
2022/03/13 00:30:34;;;;;;;22.83;12.05;;;;;;;;;;4965949;28;20085;-81
2022/03/13 00:33:00;;;;;;;20.23;11.55;;;;;;;;;;4953428;28;20567;-79
2022/03/13 00:35:27;;;;;;;19.67;11.73;;;;;;;;;;4967812;28;20081;-78
2022/03/13 00:37:52;;;;;;;20.08;10.73;;;;;;;;;;4965867;28;20412;-78
2022/03/13 00:40:18;;;;;;;18.85;10.40;;;;;;;;;;4979944;28;20368;-79
2022/03/13 00:42:44;;;;;;;21.52;10.70;;;;;;;;;;4965396;28;20119;-78
2022/03/13 00:45:10;;;;;;;20.17;10.18;;;;;;;;;;4965758;28;20054;-78
2022/03/13 00:47:35;;;;;;;20.00;10.85;;;;;;;;;;4967268;28;20571;-80
2022/03/13 00:50:01;;;;;;;21.77;12.70;;;;;;;;;;4949982;28;20058;-80
2022/03/13 00:52:27;;;;;;;19.67;10.52;;;;;;;;;;4949688;28;20055;-80
2022/03/13 00:54:53;;;;;;;19.63;11.25;;;;;;;;;;4949146;28;20031;-80
2022/03/13 00:57:19;;;;;;;17.45;10.88;;;;;;;;;;4963702;28;20238;-80
2022/03/13 00:59:45;;;;;;;18.27;10.45;;;;;;;;;;4966045;28;20449;-80
2022/03/13 01:02:11;;;;;;;19.83;11.43;;;;;;;;;;4957490;28;20153;-80
2022/03/13 01:04:37;;;;;;;18.58;10.65;;;;;;;;;;4955468;28;20401;-80
2022/03/13 01:07:03;;;;;;;22.98;10.93;;;;;;;;;;4924840;28;20118;-80
2022/03/13 01:09:29;;;;;;;19.20;11.15;;;;;;;;;;4960530;28;20121;-80
2022/03/13 01:11:54;;;;;;;18.67;10.65;;;;;;;;;;4956683;28;20275;-80
2022/03/13 01:14:21;;;;;;;18.15;10.60;;;;;;;;;;4949172;28;20547;-80
2022/03/13 01:16:47;;;;;;;19.13;10.18;;;;;;;;;;4959186;28;20043;-82
2022/03/13 01:19:13;;;;;;;18.98;11.40;;;;;;;;;;4940859;28;20372;-80
2022/03/13 01:21:41;;;;;;;19.05;11.18;;;;;;;;;;4934792;28;20047;-80
2022/03/13 01:24:10;;;;;;;20.00;11.73;;;;;;;;;;4954488;28;20039;-80
2022/03/13 01:26:39;;;;;;;20.75;11.50;;;;;;;;;;4950147;28;20044;-81
2022/03/13 01:29:13;;;;;;;24.88;11.35;;;;;;;;;;4950672;28;20047;-80
2022/03/13 01:31:44;;;;;;;23.10;10.82;;;;;;;;;;4975844;28;20404;-81
2022/03/13 01:34:12;;;;;;;18.50;10.18;;;;;;;;;;4949262;28;20073;-79
2022/03/13 01:36:38;;;;;;;21.70;11.38;;;;;;;;;;4966189;28;20043;-80
2022/03/13 01:39:06;;;;;;;19.88;10.93;;;;;;;;;;4962847;28;20053;-80
2022/03/13 01:41:33;;;;;;;20.58;10.60;;;;;;;;;;4965291;28;20399;-80
2022/03/13 01:43:59;;;;;;;18.10;10.20;;;;;;;;;;4949156;28;20069;-80
2022/03/13 01:46:27;;;;;;;18.67;10.35;;;;;;;;;;4948770;28;20035;-80
2022/03/13 01:49:03;;;;;;;19.98;10.48;;;;;;;;;;4949804;28;20034;-80
2022/03/13 01:51:30;;;;;;;20.15;10.10;;;;;;;;;;4961178;28;20320;-80
2022/03/13 01:53:58;;;;;;;18.73;10.48;;;;;;;;;;4961098;28;20927;-80
2022/03/13 01:56:24;;;;;;;17.58;9.55;;;;;;;;;;4926594;28;20147;-80
2022/03/13 01:58:53;;;;;;;19.23;10.43;;;;;;;;;;4943229;28;20039;-80
2022/03/13 02:01:20;;;;;;;17.88;10.32;;;;;;;;;;4946545;28;20042;-80
2022/03/13 02:03:47;;;;;;;18.45;10.23;;;;;;;;;;4950516;28;20125;-80
2022/03/13 02:06:13;;;;;;;18.60;9.90;;;;;;;;;;4942087;28;20031;-80
2022/03/13 02:08:39;;;;;;;18.88;10.50;;;;;;;;;;4939069;28;20046;-80
2022/03/13 02:11:05;;;;;;;18.05;9.77;;;;;;;;;;4949997;28;20130;-80
2022/03/13 02:13:34;;;;;;;19.30;10.10;;;;;;;;;;4939502;28;20109;-80
2022/03/13 02:16:00;;;;;;;20.35;10.02;;;;;;;;;;4929382;28;20052;-80
2022/03/13 02:18:25;;;;;;;19.95;9.98;;;;;;;;;;4944371;28;20348;-80
2022/03/13 02:20:51;;;;;;;14.38;8.90;;;;;;;;;;4931323;28;20040;-80
2022/03/13 02:23:28;;;;;;;18.55;9.73;;;;;;;;;;4930822;28;20042;-80
2022/03/13 02:25:59;;;;;;;16.98;9.75;;;;;;;;;;4964255;28;20051;-80
2022/03/13 02:28:33;;;;;;;19.33;10.43;;;;;;;;;;4954202;28;20050;-78
2022/03/13 02:31:06;;;;;;;20.05;9.52;;;;;;;;;;4935909;28;20039;-78
2022/03/13 02:33:32;;;;;;;16.80;9.70;;;;;;;;;;4951398;28;20516;-78
2022/03/13 02:36:04;;;;;;;18.98;10.32;;;;;;;;;;4991069;28;20046;-78
2022/03/13 02:38:30;;;;;;;18.17;10.15;;;;;;;;;;4964298;28;20046;-78
2022/03/13 02:40:57;;;;;;;21.98;10.32;;;;;;;;;;4972215;28;20077;-78
2022/03/13 02:43:23;;;;;;;19.02;9.95;;;;;;;;;;4962428;28;20480;-78
2022/03/13 02:45:52;;;;;;;18.70;10.23;;;;;;;;;;4956422;28;20514;-79
2022/03/13 02:48:19;;;;;;;16.83;10.52;;;;;;;;;;4948603;28;20045;-78
2022/03/13 02:50:45;;;;;;;20.80;10.50;;;;;;;;;;4963117;28;20066;-79
2022/03/13 02:53:11;;;;;;;18.55;10.52;;;;;;;;;;4943845;28;20046;-79
2022/03/13 02:55:37;;;;;;;20.90;9.35;;;;;;;;;;4947047;28;20601;-78
2022/03/13 02:58:04;;;;;;;17.58;10.23;;;;;;;;;;4973389;28;20428;-78
2022/03/13 03:00:47;;;;;;;16.92;8.95;;;;;;;;;;4943267;28;20038;-79
2022/03/13 03:03:18;;;;;;;19.75;10.43;;;;;;;;;;4961524;28;20039;-79
2022/03/13 03:05:44;;;;;;;17.10;9.85;;;;;;;;;;4961958;28;20556;-79
2022/03/13 03:08:11;;;;;;;26.13;11.48;;;;;;;;;;4947239;28;20492;-79
2022/03/13 03:10:38;;;;;;;18.63;9.88;;;;;;;;;;4954619;28;20260;-79
2022/03/13 03:13:04;;;;;;;19.00;10.43;;;;;;;;;;4939293;28;20492;-80
2022/03/13 03:15:31;;;;;;;18.70;10.80;;;;;;;;;;4942897;28;20122;-79
2022/03/13 03:17:57;;;;;;;19.65;10.32;;;;;;;;;;4954217;28;20271;-79
2022/03/13 03:20:23;;;;;;;15.95;9.93;;;;;;;;;;4950400;28;20144;-79
2022/03/13 03:22:52;;;;;;;22.10;10.38;;;;;;;;;;4936503;28;20123;-79
2022/03/13 03:25:25;;;;;;;16.13;10.48;;;;;;;;;;4980988;28;20284;-79
2022/03/13 03:27:52;;;;;;;20.05;10.55;;;;;;;;;;4930204;28;20513;-79
2022/03/13 03:30:20;;;;;;;17.48;9.80;;;;;;;;;;4922977;28;20070;-79
2022/03/13 03:32:46;;;;;;;17.38;10.07;;;;;;;;;;4930204;28;20110;-79
2022/03/13 03:35:12;;;;;;;18.90;10.15;;;;;;;;;;4934206;28;20449;-79
2022/03/13 03:37:37;;;;;;;19.05;10.65;;;;;;;;;;4948762;28;20356;-79
2022/03/13 03:40:05;;;;;;;20.13;10.15;;;;;;;;;;4950686;28;20596;-79
2022/03/13 03:42:31;;;;;;;16.52;9.75;;;;;;;;;;4946318;28;20067;-79
2022/03/13 03:44:57;;;;;;;18.85;10.65;;;;;;;;;;4965683;28;20075;-79
2022/03/13 03:47:23;;;;;;;20.80;10.55;;;;;;;;;;4961564;28;20039;-79
2022/03/13 03:49:49;;;;;;;22.25;11.10;;;;;;;;;;4962829;28;20035;-79
2022/03/13 03:52:15;;;;;;;21.70;10.80;;;;;;;;;;4951031;28;20047;-79
2022/03/13 03:54:41;;;;;;;16.27;10.73;;;;;;;;;;4967477;28;20043;-78
2022/03/13 03:57:07;;;;;;;17.60;10.18;;;;;;;;;;4943122;28;20493;-79
2022/03/13 03:59:33;;;;;;;19.48;10.23;;;;;;;;;;4959128;28;20062;-78
2022/03/13 04:01:59;;;;;;;21.55;10.93;;;;;;;;;;4943992;28;20047;-78
2022/03/13 04:04:24;;;;;;;20.85;11.20;;;;;;;;;;4964946;28;20579;-78
2022/03/13 04:06:50;;;;;;;19.67;9.82;;;;;;;;;;4966431;28;20106;-78
2022/03/13 04:09:16;;;;;;;21.67;10.63;;;;;;;;;;4961656;28;20316;-78
2022/03/13 04:11:43;;;;;;;22.83;11.27;;;;;;;;;;4948720;28;20070;-78
2022/03/13 04:14:09;;;;;;;21.42;10.90;;;;;;;;;;4949605;28;20417;-78
2022/03/13 04:16:35;;;;;;;22.42;11.63;;;;;;;;;;4946822;28;20055;-78
2022/03/13 04:19:01;;;;;;;22.08;11.52;;;;;;;;;;4943099;28;20055;-78
2022/03/13 04:21:27;;;;;;;17.60;10.27;;;;;;;;;;4940858;28;20069;-79
2022/03/13 04:23:53;;;;;;;21.20;11.77;;;;;;;;;;4944538;28;20043;-78
2022/03/13 04:26:20;;;;;;;22.27;10.65;;;;;;;;;;4943843;28;20393;-78
2022/03/13 04:28:49;;;;;;;23.40;10.75;;;;;;;;;;4965616;28;20066;-78
2022/03/13 04:31:15;;;;;;;21.60;10.93;;;;;;;;;;4958510;28;20066;-78
2022/03/13 04:33:41;;;;;;;21.40;10.63;;;;;;;;;;4948438;28;20056;-78
2022/03/13 04:36:12;;;;;;;23.85;11.55;;;;;;;;;;4953719;28;20122;-78
2022/03/13 04:38:38;;;;;;;21.27;12.75;;;;;;;;;;4959088;28;20070;-78
2022/03/13 04:41:04;;;;;;;19.85;10.95;;;;;;;;;;4948341;28;20063;-78
2022/03/13 04:43:30;;;;;;;19.38;11.02;;;;;;;;;;4956946;28;20416;-78
2022/03/13 04:45:55;;;;;;;20.20;10.57;;;;;;;;;;4945102;28;20099;-78
2022/03/13 04:48:21;;;;;;;19.30;11.65;;;;;;;;;;4965719;28;20522;-78
2022/03/13 04:50:47;;;;;;;20.35;10.07;;;;;;;;;;4960224;28;20039;-78
2022/03/13 04:53:13;;;;;;;20.73;10.88;;;;;;;;;;4967403;28;20049;-78
2022/03/13 04:55:41;;;;;;;19.45;11.10;;;;;;;;;;4932746;28;20071;-78
2022/03/13 04:58:08;;;;;;;23.65;11.85;;;;;;;;;;4949656;28;20065;-78
2022/03/13 05:00:37;;;;;;;18.20;11.20;;;;;;;;;;4956333;28;20165;-78
2022/03/13 05:03:03;;;;;;;19.63;11.07;;;;;;;;;;4953716;28;20560;-78
2022/03/13 05:05:29;;;;;;;22.73;11.02;;;;;;;;;;4951809;28;20035;-78
2022/03/13 05:07:55;;;;;;;24.88;12.50;;;;;;;;;;4943378;28;20045;-78
2022/03/13 05:10:21;;;;;;;22.20;11.75;;;;;;;;;;4965131;28;20046;-78
2022/03/13 05:12:47;;;;;;;20.05;10.95;;;;;;;;;;4965191;28;20054;-78
2022/03/13 05:15:13;;;;;;;21.92;12.10;;;;;;;;;;4965055;28;20665;-78
2022/03/13 05:17:40;;;;;;;21.50;11.20;;;;;;;;;;4949181;28;20114;-78
2022/03/13 05:20:06;;;;;;;19.63;11.23;;;;;;;;;;4959182;28;20039;-78
2022/03/13 05:22:32;;;;;;;23.35;11.85;;;;;;;;;;4948706;28;20047;-78
2022/03/13 05:24:58;;;;;;;19.45;11.32;;;;;;;;;;4956752;28;20134;-78
2022/03/13 05:27:23;;;;;;;25.45;11.65;;;;;;;;;;4945375;28;20063;-78
2022/03/13 05:29:49;;;;;;;22.20;11.70;;;;;;;;;;4937633;28;20102;-78
2022/03/13 05:32:15;;;;;;;20.23;11.40;;;;;;;;;;4939553;28;20492;-78
2022/03/13 05:34:42;;;;;;;24.90;12.70;;;;;;;;;;4947840;28;20451;-78
2022/03/13 05:37:08;;;;;;;22.27;12.30;;;;;;;;;;4948188;28;20400;-78
2022/03/13 05:39:34;;;;;;;21.17;12.35;;;;;;;;;;4955697;28;20417;-78
2022/03/13 05:42:00;;;;;;;22.00;12.40;;;;;;;;;;4936775;28;20040;-78
2022/03/13 05:44:26;;;;;;;22.73;12.90;;;;;;;;;;4953567;28;20525;-78
2022/03/13 05:46:52;;;;;;;24.58;12.38;;;;;;;;;;4981371;28;20078;-78
2022/03/13 05:49:17;;;;;;;24.85;12.77;;;;;;;;;;4942031;28;20642;-78
2022/03/13 05:51:43;;;;;;;23.83;12.43;;;;;;;;;;4961169;28;20150;-78
2022/03/13 05:54:10;;;;;;;22.33;12.57;;;;;;;;;;4932444;28;20493;-78
2022/03/13 05:56:36;;;;;;;22.95;12.13;;;;;;;;;;4936564;28;20489;-78
2022/03/13 05:59:02;;;;;;;26.08;13.38;;;;;;;;;;4952044;28;20048;-78
2022/03/13 06:01:28;;;;;;;22.33;11.80;;;;;;;;;;4926174;28;20386;-78
2022/03/13 06:03:57;;;;;;;24.63;12.40;;;;;;;;;;4958802;28;20043;-78
2022/03/13 06:06:23;;;;;;;21.27;11.60;;;;;;;;;;4960681;28;20047;-78
2022/03/13 06:08:49;;;;;;;22.85;12.70;;;;;;;;;;4948011;28;20063;-78
2022/03/13 06:11:14;;;;;;;21.95;12.45;;;;;;;;;;4957089;28;20576;-78
2022/03/13 06:13:40;;;;;;;21.40;12.65;;;;;;;;;;4956762;28;20062;-78
2022/03/13 06:16:06;;;;;;;27.02;13.23;;;;;;;;;;4930629;28;20500;-78
2022/03/13 06:18:34;;;;;;;26.83;12.35;;;;;;;;;;4937726;28;20083;-78
2022/03/13 06:21:01;;;;;;;27.10;12.93;;;;;;;;;;4957894;28;20071;-78
2022/03/13 06:23:29;;;;;;;20.90;12.52;;;;;;;;;;4950842;28;20046;-78
2022/03/13 06:25:59;;;;;;;25.20;13.48;;;;;;;;;;4943955;28;20522;-78
2022/03/13 06:28:26;;;;;;;22.50;12.25;;;;;;;;;;4945253;28;20127;-78
2022/03/13 06:30:55;;;;;;;24.35;13.60;;;;;;;;;;4947610;28;20465;-78
2022/03/13 06:33:21;;;;;;;24.63;12.98;;;;;;;;;;4953532;28;20055;-78
2022/03/13 06:35:47;;;;;;;23.50;13.45;;;;;;;;;;4932961;28;20038;-78
2022/03/13 06:38:14;;;;;;;25.52;13.45;;;;;;;;;;4942672;28;20390;-79
2022/03/13 06:40:39;;;;;;;25.73;13.70;;;;;;;;;;4941371;28;20122;-79
2022/03/13 06:43:06;;;;;;;22.48;13.10;;;;;;;;;;4950000;28;20374;-78
2022/03/13 06:45:33;;;;;;;24.52;14.63;;;;;;;;;;4946957;28;20078;-79
2022/03/13 06:47:59;;;;;;;22.45;13.73;;;;;;;;;;4951350;28;20057;-79
2022/03/13 06:50:24;;;;;;;24.40;13.30;;;;;;;;;;4970489;28;20357;-79
2022/03/13 06:52:53;;;;;;;23.65;13.68;;;;;;;;;;4965936;28;20628;-78
2022/03/13 06:55:21;;;;;;;24.27;13.02;;;;;;;;;;4949512;28;20495;-78
2022/03/13 06:57:47;;;;;;;23.52;12.52;;;;;;;;;;4932199;28;20039;-78
2022/03/13 07:00:15;;;;;;;21.70;12.32;;;;;;;;;;4964316;28;20069;-79
2022/03/13 07:02:42;;;;;;;30.13;15.32;;;;;;;;;;4930239;28;20079;-78
2022/03/13 07:05:10;;;;;;;28.67;14.35;;;;;;;;;;4947755;28;20501;-78
2022/03/13 07:07:37;;;;;;;25.60;13.82;;;;;;;;;;4937949;28;20049;-78
2022/03/13 07:10:04;;;;;;;22.70;13.10;;;;;;;;;;4928180;28;20040;-78
2022/03/13 07:12:29;;;;;;;22.88;13.07;;;;;;;;;;4951337;28;20043;-78
2022/03/13 07:14:58;;;;;;;26.83;13.50;;;;;;;;;;4957208;28;20093;-78
2022/03/13 07:17:24;;;;;;;23.85;13.32;;;;;;;;;;4945539;28;20353;-78
2022/03/13 07:19:51;;;;;;;26.52;12.55;;;;;;;;;;4927604;28;20130;-78
2022/03/13 07:22:16;;;;;;;21.25;12.80;;;;;;;;;;4933339;28;20055;-78
2022/03/13 07:24:43;;;;;;;24.10;12.90;;;;;;;;;;4957309;28;20087;-78
2022/03/13 07:27:10;;;;;;;22.92;12.57;;;;;;;;;;4943104;28;20047;-78
2022/03/13 07:29:38;;;;;;;25.95;12.95;;;;;;;;;;4940058;28;20101;-78
2022/03/13 07:32:05;;;;;;;22.58;12.63;;;;;;;;;;4947228;28;20042;-78
2022/03/13 07:34:32;;;;;;;23.95;12.05;;;;;;;;;;4961114;28;20074;-78
2022/03/13 07:36:57;;;;;;;22.55;11.80;;;;;;;;;;4957435;28;20385;-78
2022/03/13 07:39:25;;;;;;;21.17;12.38;;;;;;;;;;4947778;28;20047;-78
2022/03/13 07:41:53;;;;;;;26.58;13.68;;;;;;;;;;4928925;28;20043;-78
2022/03/13 07:44:20;;;;;;;20.30;11.40;;;;;;;;;;4964398;28;20093;-77
2022/03/13 07:46:45;;;;;;;24.00;12.32;;;;;;;;;;4937508;28;20039;-78
2022/03/13 07:49:11;;;;;;;20.52;11.02;;;;;;;;;;4956079;28;20145;-79
2022/03/13 07:51:37;;;;;;;20.77;11.20;;;;;;;;;;4952283;28;20125;-77
2022/03/13 07:54:03;;;;;;;22.63;12.65;;;;;;;;;;4955341;28;20042;-78
2022/03/13 07:56:29;;;;;;;19.45;11.20;;;;;;;;;;4936029;28;20035;-79
2022/03/13 07:58:55;;;;;;;18.58;11.50;;;;;;;;;;4968161;28;20055;-78
2022/03/13 08:01:23;;;;;;;20.98;10.48;;;;;;;;;;4936395;28;20493;-78
2022/03/13 08:03:49;;;;;;;18.70;10.82;;;;;;;;;;4950623;28;20493;-78
2022/03/13 08:06:15;;;;;;;22.25;11.15;;;;;;;;;;4969019;28;20046;-78
2022/03/13 08:08:41;;;;;;;22.10;12.05;;;;;;;;;;4949462;28;20050;-78
2022/03/13 08:11:10;;;;;;;21.75;11.07;;;;;;;;;;4964593;28;20161;-79
2022/03/13 08:13:36;;;;;;;20.42;11.85;;;;;;;;;;4946843;28;20047;-79
2022/03/13 08:16:02;;;;;;;20.70;11.35;;;;;;;;;;4949923;28;20043;-78
2022/03/13 08:18:29;;;;;;;18.98;11.23;;;;;;;;;;4957850;28;20059;-78
2022/03/13 08:20:55;;;;;;;20.30;11.50;;;;;;;;;;4962510;28;20039;-80
2022/03/13 08:23:21;;;;;;;19.40;10.68;;;;;;;;;;4963912;28;20441;-78
2022/03/13 08:25:47;;;;;;;16.88;10.73;;;;;;;;;;4964920;28;20587;-78
2022/03/13 08:28:13;;;;;;;20.17;10.73;;;;;;;;;;4962271;28;20047;-78
2022/03/13 08:30:38;;;;;;;18.02;10.60;;;;;;;;;;4967578;28;20039;-77
2022/03/13 08:33:05;;;;;;;19.20;11.32;;;;;;;;;;4967447;28;20133;-78
2022/03/13 08:35:32;;;;;;;16.92;10.27;;;;;;;;;;4948638;28;20039;-78
2022/03/13 08:37:58;;;;;;;18.13;10.02;;;;;;;;;;4964392;28;20050;-78
2022/03/13 08:40:29;;;;;;;18.00;9.82;;;;;;;;;;4966086;28;20039;-78
2022/03/13 08:42:55;;;;;;;15.50;10.32;;;;;;;;;;4964133;28;20030;-79
2022/03/13 08:45:22;;;;;;;17.35;9.50;;;;;;;;;;4948443;28;20046;-78
2022/03/13 08:47:48;;;;;;;14.32;9.10;;;;;;;;;;4957363;28;20121;-78
2022/03/13 08:50:16;;;;;;;15.55;9.82;;;;;;;;;;4952225;28;20063;-78
2022/03/13 08:52:43;;;;;;;13.90;8.60;;;;;;;;;;4940939;28;20450;-78
2022/03/13 08:55:15;;;;;;;17.08;8.55;;;;;;;;;;4949682;28;20053;-78
2022/03/13 08:57:44;;;;;;;16.90;9.70;;;;;;;;;;4978849;28;20491;-78
2022/03/13 09:00:15;;;;;;;17.95;10.07;;;;;;;;;;4953564;28;20070;-78
2022/03/13 09:02:45;;;;;;;16.00;9.10;;;;;;;;;;4934804;28;20080;-78
2022/03/13 09:05:12;;;;;;;13.93;8.68;;;;;;;;;;4963512;28;20143;-78
2022/03/13 09:07:38;;;;;;;14.90;9.70;;;;;;;;;;4969928;28;20045;-78
2022/03/13 09:10:09;;;;;;;14.63;9.32;;;;;;;;;;4957929;28;20446;-77
2022/03/13 09:12:36;;;;;;;14.82;9.15;;;;;;;;;;4961567;28;20085;-78
2022/03/13 09:15:02;;;;;;;16.70;9.45;;;;;;;;;;4948656;28;20138;-78
2022/03/13 09:17:28;;;;;;;16.33;9.80;;;;;;;;;;4943149;28;20057;-78
2022/03/13 09:19:55;;;;;;;14.77;9.27;;;;;;;;;;4951048;28;20035;-78
2022/03/13 09:22:24;;;;;;;15.65;9.43;;;;;;;;;;4940808;28;20056;-78
2022/03/13 09:24:51;;;;;;;17.75;9.25;;;;;;;;;;4931365;28;20102;-78
2022/03/13 09:27:17;;;;;;;14.05;8.80;;;;;;;;;;4947118;28;20062;-78
2022/03/13 09:29:43;;;;;;;13.60;9.27;;;;;;;;;;4937355;28;20122;-78
2022/03/13 09:32:08;;;;;;;14.30;8.93;;;;;;;;;;4958296;28;20042;-78
2022/03/13 09:34:35;;;;;;;13.60;8.90;;;;;;;;;;4963158;28;20123;-78
2022/03/13 09:37:00;;;;;;;13.38;8.60;;;;;;;;;;4983114;28;20062;-77
2022/03/13 09:39:26;;;;;;;16.80;9.65;;;;;;;;;;4938092;28;20517;-77
2022/03/13 09:41:52;;;;;;;11.48;8.07;;;;;;;;;;4965890;28;20063;-77
2022/03/13 09:44:19;;;;;;;11.85;7.50;;;;;;;;;;4956897;28;20452;-77
2022/03/13 09:46:44;;;;;;;14.98;7.72;;;;;;;;;;4964363;28;20043;-77
2022/03/13 09:49:10;;;;;;;15.13;8.07;;;;;;;;;;4961565;28;20559;-77
2022/03/13 09:51:36;;;;;;;10.63;7.40;;;;;;;;;;4956269;28;20043;-77
2022/03/13 09:54:02;;;;;;;12.75;7.32;;;;;;;;;;4946206;28;20067;-77
2022/03/13 09:56:29;;;;;;;12.82;7.95;;;;;;;;;;4962794;28;20035;-78
2022/03/13 09:58:54;;;;;;;12.82;8.95;;;;;;;;;;4937380;28;20118;-77
2022/03/13 10:01:20;;;;;;;15.43;8.52;;;;;;;;;;4960058;28;20070;-77
2022/03/13 10:03:46;;;;;;;10.55;6.85;;;;;;;;;;4952054;28;20051;-80
2022/03/13 10:06:13;;;;;;;12.88;7.72;;;;;;;;;;4959963;28;20070;-77
2022/03/13 10:08:38;;;;;;;13.50;7.85;;;;;;;;;;4960413;28;20047;-77
2022/03/13 10:11:04;;;;;;;11.45;7.38;;;;;;;;;;4967744;28;20156;-76
2022/03/13 10:13:37;;;;;;;11.05;6.80;;;;;;;;;;4952458;28;20070;-78
2022/03/13 10:16:05;;;;;;;12.45;7.20;;;;;;;;;;4967232;28;20064;-77
2022/03/13 10:18:31;;;;;;;14.77;7.32;;;;;;;;;;4959031;28;20707;-78
2022/03/13 10:20:59;;;;;;;13.18;7.05;;;;;;;;;;4963043;28;20070;-78
2022/03/13 10:23:25;;;;;;;9.60;7.20;;;;;;;;;;4955779;28;20046;-78
2022/03/13 10:25:52;;;;;;;9.98;7.43;;;;;;;;;;4952792;28;20086;-78
2022/03/13 10:28:34;;;;;;;11.50;7.13;;;;;;;;;;4946153;28;20043;-78
2022/03/13 10:31:00;;;;;;;10.88;7.07;;;;;;;;;;4962879;28;20625;-78
2022/03/13 10:33:42;;;;;;;11.10;7.57;;;;;;;;;;4957235;28;20135;-79
2022/03/13 10:36:09;;;;;;;9.07;7.15;;;;;;;;;;4948654;28;20397;-78
2022/03/13 10:38:35;;;;;;;9.88;7.18;;;;;;;;;;4968169;28;20571;-79
2022/03/13 10:41:03;;;;;;;12.27;7.40;;;;;;;;;;4963144;28;20057;-79
2022/03/13 10:43:29;;;;;;;9.73;6.95;;;;;;;;;;4952876;28;20138;-79
2022/03/13 10:45:56;;;;;;;11.15;8.02;;;;;;;;;;4948315;28;20047;-79
2022/03/13 10:48:32;;;;;;;9.25;7.15;;;;;;;;;;4947641;28;20050;-79
2022/03/13 10:51:01;;;;;;;10.27;8.18;;;;;;;;;;4936996;28;20071;-79
2022/03/13 10:53:27;;;;;;;10.98;8.30;;;;;;;;;;4935350;28;20039;-80
2022/03/13 10:56:00;;;;;;;10.93;7.50;;;;;;;;;;4935963;28;20191;-80
2022/03/13 10:58:34;;;;;;;10.68;8.10;;;;;;;;;;4983206;28;20047;-80
2022/03/13 11:01:07;;;;;;;10.63;9.52;;;;;;;;;;4952868;28;20110;-80
2022/03/13 11:03:35;;;;;;;11.18;8.27;;;;;;;;;;4958449;28;20532;-80
2022/03/13 11:06:02;;;;;;;12.27;8.77;;;;;;;;;;4937723;28;20517;-80
2022/03/13 11:08:28;;;;;;;12.00;8.80;;;;;;;;;;4939799;28;20295;-80
2022/03/13 11:10:55;;;;;;;11.48;9.60;;;;;;;;;;4944678;28;20403;-80
2022/03/13 11:13:21;;;;;;;11.45;8.80;;;;;;;;;;4964526;28;20586;-80
2022/03/13 11:15:48;;;;;;;12.15;8.90;;;;;;;;;;4946804;28;20067;-80
2022/03/13 11:18:17;;;;;;;11.52;9.20;;;;;;;;;;4957293;28;20597;-80
2022/03/13 11:20:43;;;;;;;10.00;8.45;;;;;;;;;;4947838;28;20171;-80
2022/03/13 11:23:09;;;;;;;13.93;9.73;;;;;;;;;;4945664;28;20047;-80
2022/03/13 11:25:35;;;;;;;14.63;10.77;;;;;;;;;;4967143;28;20047;-80
2022/03/13 11:28:02;;;;;;;11.23;9.13;;;;;;;;;;4954413;28;20389;-80
2022/03/13 11:30:34;;;;;;;11.27;9.82;;;;;;;;;;4957840;28;20389;-80
2022/03/13 11:33:02;;;;;;;12.88;10.52;;;;;;;;;;4971222;28;20034;-80
2022/03/13 11:35:30;;;;;;;13.90;10.32;;;;;;;;;;4959656;28;20046;-81
2022/03/13 11:38:17;;;;;;;12.07;10.10;;;;;;;;;;4964856;28;20047;-80
2022/03/13 11:40:43;;;;;;;11.95;9.82;;;;;;;;;;4949218;28;20067;-80
2022/03/13 11:43:13;;;;;;;12.73;9.95;;;;;;;;;;4949134;28;20030;-80
2022/03/13 11:45:41;;;;;;;12.55;10.43;;;;;;;;;;4964436;28;20149;-80
2022/03/13 11:48:22;;;;;;;12.30;10.27;;;;;;;;;;4963457;28;20551;-81
2022/03/13 11:50:54;;;;;;;12.82;10.07;;;;;;;;;;4963800;28;20325;-80
2022/03/13 11:53:24;;;;;;;12.18;9.52;;;;;;;;;;4927757;28;20051;-80
2022/03/13 11:56:02;;;;;;;11.82;9.52;;;;;;;;;;4952971;28;20036;-81
2022/03/13 11:58:47;;;;;;;11.80;9.57;;;;;;;;;;4960174;28;20476;-80
2022/03/13 12:01:20;;;;;;;11.57;9.27;;;;;;;;;;4982274;28;20074;-80
2022/03/13 12:04:01;;;;;;;11.10;8.75;;;;;;;;;;4969012;28;20047;-80
2022/03/13 12:06:44;;;;;;;11.45;9.30;;;;;;;;;;4969002;28;20126;-80
2022/03/13 12:09:15;;;;;;;13.02;9.68;;;;;;;;;;4957060;28;20049;-80
2022/03/13 12:11:57;;;;;;;12.38;9.43;;;;;;;;;;4952694;28;20041;-80
2022/03/13 12:14:53;;;;;;;12.10;9.57;;;;;;;;;;4968540;28;20045;-80
2022/03/13 12:17:20;;;;;;;12.35;9.85;;;;;;;;;;4944113;28;20043;-80
2022/03/13 12:19:47;;;;;;;12.27;9.07;;;;;;;;;;4956838;28;20039;-80
2022/03/13 12:22:14;;;;;;;12.20;9.38;;;;;;;;;;4935566;29;20146;-79
2022/03/13 12:24:47;;;;;;;11.48;8.52;;;;;;;;;;4950340;28;20090;-79
2022/03/13 12:27:13;;;;;;;11.60;8.82;;;;;;;;;;4950418;28;20035;-80
2022/03/13 12:29:39;;;;;;;14.25;10.23;;;;;;;;;;4964559;28;20093;-78
2022/03/13 12:32:10;;;;;;;13.65;9.48;;;;;;;;;;4940007;28;20082;-79
2022/03/13 12:34:36;;;;;;;13.02;9.80;;;;;;;;;;4972734;28;20822;-79
2022/03/13 12:37:08;;;;;;;16.40;9.65;;;;;;;;;;4960092;28;20146;-78
2022/03/13 12:39:34;;;;;;;12.85;9.90;;;;;;;;;;4946601;28;22734;-79
2022/03/13 12:42:04;;;;;;;15.10;9.82;;;;;;;;;;4948840;28;20150;-79
2022/03/13 12:44:30;;;;;;;14.48;9.40;;;;;;;;;;4963019;28;20302;-79
2022/03/13 12:46:57;;;;;;;14.73;9.57;;;;;;;;;;4936477;28;20043;-78
2022/03/13 12:49:28;;;;;;;13.40;8.93;;;;;;;;;;4965929;28;20145;-78
2022/03/13 12:51:54;;;;;;;14.70;9.80;;;;;;;;;;4961034;28;20039;-78
2022/03/13 12:54:19;;;;;;;10.85;8.40;;;;;;;;;;4945815;28;20087;-78
2022/03/13 12:56:48;;;;;;;12.88;10.02;;;;;;;;;;4962696;28;20042;-79
2022/03/13 12:59:24;;;;;;;13.60;9.48;;;;;;;;;;4957192;28;20412;-80
2022/03/13 13:02:09;;;;;;;12.05;8.25;;;;;;;;;;4954011;28;20065;-78
2022/03/13 13:04:37;;;;;;;15.70;8.95;;;;;;;;;;4978912;28;20097;-78
2022/03/13 13:07:05;;;;;;;11.48;8.48;;;;;;;;;;4938464;28;20448;-78
2022/03/13 13:09:32;;;;;;;12.05;8.27;;;;;;;;;;4950051;28;20109;-78
2022/03/13 13:11:58;;;;;;;11.93;8.90;;;;;;;;;;4966770;28;20129;-79
2022/03/13 13:14:26;;;;;;;13.63;8.32;;;;;;;;;;4950723;28;20058;-79
2022/03/13 13:16:54;;;;;;;14.88;9.05;;;;;;;;;;4965838;28;20516;-78
2022/03/13 13:19:20;;;;;;;11.13;8.63;;;;;;;;;;4950267;28;20042;-80
2022/03/13 13:21:57;;;;;;;11.13;8.27;;;;;;;;;;4961624;28;20065;-78
2022/03/13 13:24:35;;;;;;;13.32;8.77;;;;;;;;;;4946564;28;20043;-79
2022/03/13 13:27:05;;;;;;;11.07;7.82;;;;;;;;;;4955706;28;20503;-79
2022/03/13 13:29:38;;;;;;;12.43;8.10;;;;;;;;;;4962762;28;20385;-79
2022/03/13 13:32:23;;;;;;;11.55;8.38;;;;;;;;;;4946399;28;20039;-79
2022/03/13 13:35:10;;;;;;;11.20;7.72;;;;;;;;;;4954348;28;20134;-79
2022/03/13 13:37:56;;;;;;;10.90;7.25;;;;;;;;;;4957458;28;20039;-79
2022/03/13 13:40:22;;;;;;;;;;;;;;;;;;4948618;28;20043;-79
2022/03/13 13:42:56;;;;;;;10.23;7.40;;;;;;;;;;4960674;28;19949;-79
2022/03/13 13:45:21;;;;;;;11.32;7.93;;;;;;;;;;4964037;28;20479;-79
2022/03/13 13:47:47;;;;;;;11.98;7.60;;;;;;;;;;4965686;28;20070;-79
2022/03/13 13:50:15;;;;;;;15.90;8.18;;;;;;;;;;4966512;28;20154;-79
2022/03/13 13:52:42;;;;;;;10.88;7.43;;;;;;;;;;4963339;28;20505;-79
2022/03/13 13:55:25;;;;;;;13.32;8.05;;;;;;;;;;4963854;28;20039;-79
2022/03/13 13:58:22;;;;;;;11.25;8.15;;;;;;;;;;4963241;28;20105;-79
2022/03/13 14:00:48;;;;;;;10.55;7.35;;;;;;;;;;4963984;28;20125;-79
2022/03/13 14:03:14;;;;;;;11.02;6.97;;;;;;;;;;4944559;28;20070;-79
2022/03/13 14:05:41;;;;;;;11.35;7.75;;;;;;;;;;4939443;28;20065;-79
2022/03/13 14:08:07;;;;;;;11.40;7.93;;;;;;;;;;4944821;28;20087;-79
2022/03/13 14:10:32;;;;;;;12.82;7.82;;;;;;;;;;4954152;28;20492;-79
2022/03/13 14:12:59;;;;;;;12.52;8.32;;;;;;;;;;4941172;28;20408;-79
2022/03/13 14:15:25;;;;;;;11.65;7.45;;;;;;;;;;4947588;28;20098;-79
2022/03/13 14:17:51;;;;;;;10.85;7.30;;;;;;;;;;4947749;28;20125;-79
2022/03/13 14:20:17;;;;;;;11.30;8.20;;;;;;;;;;4931121;28;20095;-79
2022/03/13 14:22:43;;;;;;;10.27;8.02;;;;;;;;;;4951926;28;20496;-79
2022/03/13 14:25:09;;;;;;;10.65;8.25;;;;;;;;;;4954868;28;20073;-79
2022/03/13 14:27:35;;;;;;;10.15;8.05;;;;;;;;;;4953097;28;20043;-80